sensor_id;sensor_type;location;lat;lon;timestamp;pressure;altitude;pressure_sealevel;temperature;humidity
20115;BME280;10218;42.874;25.320;2022-10-01T05:54:56;97488.44;;;18.21;100.00
20115;BME280;10218;42.874;25.320;2022-10-01T05:57:24;97500.63;;;18.57;100.00
20115;BME280;10218;42.874;25.320;2022-10-01T05:59:51;97493.53;;;18.49;100.00
20115;BME280;10218;42.874;25.320;2022-10-01T06:02:18;97484.53;;;19.06;100.00
20115;BME280;10218;42.874;25.320;2022-10-01T06:04:45;97506.94;;;18.89;100.00
20115;BME280;10218;42.874;25.320;2022-10-01T06:07:13;97512.28;;;18.95;100.00
20115;BME280;10218;42.874;25.320;2022-10-01T06:09:40;97521.97;;;19.16;100.00
20115;BME280;10218;42.874;25.320;2022-10-01T06:12:07;97513.03;;;19.47;100.00
20115;BME280;10218;42.874;25.320;2022-10-01T06:14:35;97506.63;;;19.66;100.00
20115;BME280;10218;42.874;25.320;2022-10-01T06:17:02;97493.63;;;19.99;100.00
20115;BME280;10218;42.874;25.320;2022-10-01T06:19:29;97493.09;;;20.34;100.00
20115;BME280;10218;42.874;25.320;2022-10-01T06:21:56;97478.22;;;20.55;100.00
20115;BME280;10218;42.874;25.320;2022-10-01T06:24:23;97486.13;;;20.74;100.00
20115;BME280;10218;42.874;25.320;2022-10-01T06:26:52;97490.00;;;21.15;100.00
20115;BME280;10218;42.874;25.320;2022-10-01T06:29:19;97489.94;;;21.33;100.00
20115;BME280;10218;42.874;25.320;2022-10-01T06:31:46;97491.56;;;20.74;100.00
20115;BME280;10218;42.874;25.320;2022-10-01T06:34:13;97493.16;;;21.42;100.00
20115;BME280;10218;42.874;25.320;2022-10-01T06:36:40;97497.16;;;22.04;100.00
20115;BME280;10218;42.874;25.320;2022-10-01T06:39:07;97496.13;;;22.80;100.00
20115;BME280;10218;42.874;25.320;2022-10-01T06:41:35;97499.50;;;22.98;100.00
20115;BME280;10218;42.874;25.320;2022-10-01T06:44:02;97495.94;;;22.46;100.00
20115;BME280;10218;42.874;25.320;2022-10-01T06:46:29;97488.09;;;23.01;100.00
20115;BME280;10218;42.874;25.320;2022-10-01T06:48:57;97486.97;;;22.86;100.00
20115;BME280;10218;42.874;25.320;2022-10-01T06:51:24;97486.13;;;22.34;100.00
20115;BME280;10218;42.874;25.320;2022-10-01T06:54:24;97466.28;;;22.61;100.00
20115;BME280;10218;42.874;25.320;2022-10-01T06:56:53;97481.22;;;22.71;100.00
20115;BME280;10218;42.874;25.320;2022-10-01T06:59:20;97479.38;;;22.48;100.00
20115;BME280;10218;42.874;25.320;2022-10-01T07:01:48;97485.31;;;22.10;100.00
20115;BME280;10218;42.874;25.320;2022-10-01T07:04:21;97482.41;;;22.51;100.00
20115;BME280;10218;42.874;25.320;2022-10-01T07:06:48;97485.44;;;23.47;100.00
20115;BME280;10218;42.874;25.320;2022-10-01T07:09:15;97490.72;;;24.03;100.00
20115;BME280;10218;42.874;25.320;2022-10-01T07:11:42;97484.38;;;25.18;86.31
20115;BME280;10218;42.874;25.320;2022-10-01T07:14:09;97482.97;;;25.16;84.31
20115;BME280;10218;42.874;25.320;2022-10-01T07:16:37;97477.22;;;25.39;84.53
20115;BME280;10218;42.874;25.320;2022-10-01T07:19:05;97472.88;;;24.73;95.74
20115;BME280;10218;42.874;25.320;2022-10-01T07:21:32;97473.31;;;24.64;98.65
20115;BME280;10218;42.874;25.320;2022-10-01T07:23:59;97470.84;;;24.63;100.00
20115;BME280;10218;42.874;25.320;2022-10-01T07:26:26;97461.84;;;24.62;90.83
20115;BME280;10218;42.874;25.320;2022-10-01T07:28:54;97462.75;;;24.13;96.45
20115;BME280;10218;42.874;25.320;2022-10-01T07:31:21;97460.00;;;24.68;90.19
20115;BME280;10218;42.874;25.320;2022-10-01T07:33:55;97462.06;;;25.04;88.27
20115;BME280;10218;42.874;25.320;2022-10-01T07:36:25;97452.78;;;25.05;84.24
20115;BME280;10218;42.874;25.320;2022-10-01T07:38:52;97456.66;;;25.36;80.29
20115;BME280;10218;42.874;25.320;2022-10-01T07:41:19;97451.66;;;25.55;78.52
20115;BME280;10218;42.874;25.320;2022-10-01T07:43:46;97459.78;;;25.77;76.15
20115;BME280;10218;42.874;25.320;2022-10-01T07:46:15;97450.88;;;25.33;77.50
20115;BME280;10218;42.874;25.320;2022-10-01T07:48:42;97453.38;;;26.35;69.86
20115;BME280;10218;42.874;25.320;2022-10-01T07:51:12;97462.37;;;26.30;69.23
20115;BME280;10218;42.874;25.320;2022-10-01T07:53:39;97457.13;;;26.81;63.36
20115;BME280;10218;42.874;25.320;2022-10-01T07:56:06;97458.19;;;27.52;61.26
20115;BME280;10218;42.874;25.320;2022-10-01T07:58:33;97454.91;;;26.73;67.11
20115;BME280;10218;42.874;25.320;2022-10-01T08:01:03;97452.59;;;27.02;60.24
20115;BME280;10218;42.874;25.320;2022-10-01T08:03:31;97447.16;;;27.32;64.00
20115;BME280;10218;42.874;25.320;2022-10-01T08:05:58;97427.97;;;27.98;66.84
20115;BME280;10218;42.874;25.320;2022-10-01T08:08:25;97422.31;;;28.69;62.24
20115;BME280;10218;42.874;25.320;2022-10-01T08:10:52;97415.41;;;28.71;61.43
20115;BME280;10218;42.874;25.320;2022-10-01T08:13:19;97412.66;;;28.76;52.52
20115;BME280;10218;42.874;25.320;2022-10-01T08:15:51;97412.31;;;28.93;44.37
20115;BME280;10218;42.874;25.320;2022-10-01T08:18:21;97422.78;;;28.86;42.84
20115;BME280;10218;42.874;25.320;2022-10-01T08:20:49;97423.78;;;29.10;42.52
20115;BME280;10218;42.874;25.320;2022-10-01T08:23:16;97429.25;;;28.46;42.38
20115;BME280;10218;42.874;25.320;2022-10-01T08:25:44;97426.81;;;28.29;42.49
20115;BME280;10218;42.874;25.320;2022-10-01T08:28:11;97418.72;;;28.73;41.06
20115;BME280;10218;42.874;25.320;2022-10-01T08:30:40;97437.97;;;28.73;41.51
20115;BME280;10218;42.874;25.320;2022-10-01T08:33:10;97434.03;;;29.44;40.07
20115;BME280;10218;42.874;25.320;2022-10-01T08:35:40;97423.16;;;29.18;38.86
20115;BME280;10218;42.874;25.320;2022-10-01T08:38:13;97426.38;;;29.30;38.45
20115;BME280;10218;42.874;25.320;2022-10-01T08:40:47;97438.00;;;29.17;38.70
20115;BME280;10218;42.874;25.320;2022-10-01T08:45:58;97447.72;;;29.54;38.26
20115;BME280;10218;42.874;25.320;2022-10-01T08:48:36;97437.66;;;29.29;38.59
20115;BME280;10218;42.874;25.320;2022-10-01T08:56:34;97421.59;;;30.14;37.12
20115;BME280;10218;42.874;25.320;2022-10-01T08:59:12;97416.19;;;30.28;36.76
20115;BME280;10218;42.874;25.320;2022-10-01T09:01:43;97418.41;;;30.54;35.73
20115;BME280;10218;42.874;25.320;2022-10-01T09:04:10;97438.94;;;30.67;36.08
20115;BME280;10218;42.874;25.320;2022-10-01T09:06:38;97419.56;;;29.62;37.46
20115;BME280;10218;42.874;25.320;2022-10-01T09:09:30;97415.03;;;29.42;38.06
20115;BME280;10218;42.874;25.320;2022-10-01T09:15:16;97415.69;;;29.63;36.64
20115;BME280;10218;42.874;25.320;2022-10-01T09:20:26;97424.81;;;29.58;36.97
20115;BME280;10218;42.874;25.320;2022-10-01T09:25:42;97416.19;;;30.04;36.26
20115;BME280;10218;42.874;25.320;2022-10-01T09:28:33;97408.31;;;29.58;36.02
20115;BME280;10218;42.874;25.320;2022-10-01T09:34:37;97408.03;;;29.89;36.52
20115;BME280;10218;42.874;25.320;2022-10-01T09:37:01;97398.81;;;30.03;35.39
20115;BME280;10218;42.874;25.320;2022-10-01T09:40:10;97396.28;;;30.12;35.51
20115;BME280;10218;42.874;25.320;2022-10-01T09:42:29;97398.94;;;29.93;35.29
20115;BME280;10218;42.874;25.320;2022-10-01T09:44:57;97399.19;;;29.97;35.26
20115;BME280;10218;42.874;25.320;2022-10-01T09:47:25;97392.78;;;29.67;35.27
20115;BME280;10218;42.874;25.320;2022-10-01T09:49:52;97393.16;;;29.61;35.10
20115;BME280;10218;42.874;25.320;2022-10-01T09:52:26;97387.06;;;29.25;36.11
20115;BME280;10218;42.874;25.320;2022-10-01T09:57:35;97375.25;;;29.58;35.39
20115;BME280;10218;42.874;25.320;2022-10-01T10:00:10;97381.19;;;29.42;36.79
20115;BME280;10218;42.874;25.320;2022-10-01T10:02:43;97386.28;;;29.19;37.81
20115;BME280;10218;42.874;25.320;2022-10-01T10:05:20;97377.34;;;28.99;37.89
20115;BME280;10218;42.874;25.320;2022-10-01T10:08:35;97374.38;;;28.90;38.31
20115;BME280;10218;42.874;25.320;2022-10-01T10:11:08;97383.31;;;29.06;38.48
20115;BME280;10218;42.874;25.320;2022-10-01T10:13:48;97382.94;;;29.22;37.96
20115;BME280;10218;42.874;25.320;2022-10-01T10:16:22;97388.81;;;30.12;36.54
20115;BME280;10218;42.874;25.320;2022-10-01T10:19:22;97394.50;;;31.30;34.48
20115;BME280;10218;42.874;25.320;2022-10-01T10:21:54;97395.19;;;30.79;35.35
20115;BME280;10218;42.874;25.320;2022-10-01T10:24:30;97396.66;;;30.00;36.10
20115;BME280;10218;42.874;25.320;2022-10-01T10:27:00;97388.84;;;30.60;35.58
20115;BME280;10218;42.874;25.320;2022-10-01T10:29:31;97389.00;;;30.45;35.84
20115;BME280;10218;42.874;25.320;2022-10-01T10:32:02;97389.31;;;29.57;38.18
20115;BME280;10218;42.874;25.320;2022-10-01T10:34:36;97392.59;;;29.93;36.43
20115;BME280;10218;42.874;25.320;2022-10-01T10:37:16;97390.16;;;29.91;36.56
20115;BME280;10218;42.874;25.320;2022-10-01T10:39:48;97395.37;;;30.40;36.15
20115;BME280;10218;42.874;25.320;2022-10-01T10:42:17;97396.63;;;30.53;35.41
20115;BME280;10218;42.874;25.320;2022-10-01T10:44:48;97394.63;;;30.58;38.15
20115;BME280;10218;42.874;25.320;2022-10-01T10:47:18;97402.06;;;30.34;45.50
20115;BME280;10218;42.874;25.320;2022-10-01T10:49:52;97396.16;;;30.22;46.67
20115;BME280;10218;42.874;25.320;2022-10-01T10:52:32;97398.25;;;30.30;45.65
20115;BME280;10218;42.874;25.320;2022-10-01T10:55:26;97400.03;;;29.92;47.53
20115;BME280;10218;42.874;25.320;2022-10-01T10:57:54;97407.88;;;29.41;48.14
20115;BME280;10218;42.874;25.320;2022-10-01T11:00:24;97404.84;;;29.43;50.68
20115;BME280;10218;42.874;25.320;2022-10-01T11:03:00;97405.62;;;28.35;56.25
20115;BME280;10218;42.874;25.320;2022-10-01T11:05:31;97399.72;;;28.82;58.85
20115;BME280;10218;42.874;25.320;2022-10-01T11:08:02;97409.56;;;28.93;58.09
20115;BME280;10218;42.874;25.320;2022-10-01T11:21:49;97407.19;;;28.66;53.73
20115;BME280;10218;42.874;25.320;2022-10-01T11:30:25;97397.00;;;28.72;51.76
20115;BME280;10218;42.874;25.320;2022-10-01T11:38:40;97381.06;;;28.74;45.53
20115;BME280;10218;42.874;25.320;2022-10-01T11:43:55;97367.91;;;28.56;42.98
20115;BME280;10218;42.874;25.320;2022-10-01T11:46:46;97382.78;;;28.44;48.32
20115;BME280;10218;42.874;25.320;2022-10-01T11:54:53;97377.00;;;29.10;45.86
20115;BME280;10218;42.874;25.320;2022-10-01T11:57:22;97368.94;;;29.58;46.46
20115;BME280;10218;42.874;25.320;2022-10-01T12:00:11;97374.16;;;28.71;48.60
20115;BME280;10218;42.874;25.320;2022-10-01T12:02:53;97358.53;;;29.11;48.22
20115;BME280;10218;42.874;25.320;2022-10-01T12:05:28;97362.50;;;29.00;48.83
20115;BME280;10218;42.874;25.320;2022-10-01T12:08:21;97360.06;;;28.88;43.20
20115;BME280;10218;42.874;25.320;2022-10-01T12:11:08;97350.78;;;29.18;43.12
20115;BME280;10218;42.874;25.320;2022-10-01T12:13:43;97349.69;;;29.19;41.43
20115;BME280;10218;42.874;25.320;2022-10-01T12:22:12;97350.34;;;28.52;41.73
20115;BME280;10218;42.874;25.320;2022-10-01T12:24:44;97353.38;;;28.50;41.82
20115;BME280;10218;42.874;25.320;2022-10-01T12:30:28;97370.06;;;28.69;42.25
20115;BME280;10218;42.874;25.320;2022-10-01T12:33:11;97358.25;;;29.12;42.07
20115;BME280;10218;42.874;25.320;2022-10-01T12:44:33;97341.94;;;28.28;45.76
20115;BME280;10218;42.874;25.320;2022-10-01T12:47:33;97336.00;;;27.80;48.34
20115;BME280;10218;42.874;25.320;2022-10-01T12:50:20;97327.25;;;27.43;48.62
20115;BME280;10218;42.874;25.320;2022-10-01T12:53:08;97322.31;;;27.35;46.37
20115;BME280;10218;42.874;25.320;2022-10-01T12:55:50;97307.22;;;26.87;47.91
20115;BME280;10218;42.874;25.320;2022-10-01T13:14:59;97255.81;;;28.47;45.34
20115;BME280;10218;42.874;25.320;2022-10-01T13:23:26;97257.84;;;27.42;47.19
20115;BME280;10218;42.874;25.320;2022-10-01T13:26:11;97252.66;;;27.10;47.97
20115;BME280;10218;42.874;25.320;2022-10-01T13:28:52;97235.38;;;26.74;49.68
20115;BME280;10218;42.874;25.320;2022-10-01T13:31:32;97240.25;;;26.52;50.23
20115;BME280;10218;42.874;25.320;2022-10-01T13:34:00;97239.75;;;26.86;49.42
20115;BME280;10218;42.874;25.320;2022-10-01T13:36:32;97227.66;;;26.31;51.84
20115;BME280;10218;42.874;25.320;2022-10-01T13:39:00;97203.00;;;26.36;53.10
20115;BME280;10218;42.874;25.320;2022-10-01T13:41:29;97230.12;;;26.63;52.49
20115;BME280;10218;42.874;25.320;2022-10-01T13:46:31;97224.69;;;26.93;51.00
20115;BME280;10218;42.874;25.320;2022-10-01T13:49:05;97210.69;;;26.74;52.25
20115;BME280;10218;42.874;25.320;2022-10-01T13:51:40;97198.63;;;26.80;53.48
20115;BME280;10218;42.874;25.320;2022-10-01T13:54:36;97194.25;;;26.74;52.67
20115;BME280;10218;42.874;25.320;2022-10-01T13:57:10;97198.38;;;26.87;51.32
20115;BME280;10218;42.874;25.320;2022-10-01T14:02:35;97212.34;;;27.11;50.04
20115;BME280;10218;42.874;25.320;2022-10-01T14:05:30;97218.34;;;27.23;50.70
20115;BME280;10218;42.874;25.320;2022-10-01T14:08:24;97214.69;;;28.76;47.22
20115;BME280;10218;42.874;25.320;2022-10-01T14:10:59;97206.75;;;28.75;46.60
20115;BME280;10218;42.874;25.320;2022-10-01T14:13:47;97213.13;;;28.99;45.93
20115;BME280;10218;42.874;25.320;2022-10-01T14:16:48;97208.66;;;28.30;46.96
20115;BME280;10218;42.874;25.320;2022-10-01T14:19:20;97191.13;;;27.62;48.32
20115;BME280;10218;42.874;25.320;2022-10-01T14:24:38;97171.56;;;27.79;49.91
20115;BME280;10218;42.874;25.320;2022-10-01T14:38:21;97109.88;;;26.56;56.17
20115;BME280;10218;42.874;25.320;2022-10-01T14:40:49;97111.22;;;26.54;56.08
20115;BME280;10218;42.874;25.320;2022-10-01T14:43:24;97112.63;;;26.26;57.07
20115;BME280;10218;42.874;25.320;2022-10-01T14:45:54;97118.56;;;26.18;57.22
20115;BME280;10218;42.874;25.320;2022-10-01T14:48:24;97111.44;;;26.07;59.00
20115;BME280;10218;42.874;25.320;2022-10-01T14:50:54;97116.41;;;26.10;59.83
20115;BME280;10218;42.874;25.320;2022-10-01T14:53:24;97104.00;;;25.77;60.97
20115;BME280;10218;42.874;25.320;2022-10-01T14:55:55;97103.78;;;25.93;60.67
20115;BME280;10218;42.874;25.320;2022-10-01T14:58:37;97101.59;;;26.01;60.22
20115;BME280;10218;42.874;25.320;2022-10-01T15:01:05;97114.72;;;25.88;63.08
20115;BME280;10218;42.874;25.320;2022-10-01T15:03:40;97096.91;;;25.91;63.56
20115;BME280;10218;42.874;25.320;2022-10-01T15:06:12;97090.09;;;25.98;61.67
20115;BME280;10218;42.874;25.320;2022-10-01T15:08:45;97104.34;;;25.95;61.52
20115;BME280;10218;42.874;25.320;2022-10-01T15:11:25;97096.06;;;25.80;63.18
20115;BME280;10218;42.874;25.320;2022-10-01T15:14:02;97098.25;;;25.68;62.79
20115;BME280;10218;42.874;25.320;2022-10-01T15:16:31;97081.31;;;25.86;64.07
20115;BME280;10218;42.874;25.320;2022-10-01T15:19:06;97075.72;;;25.51;69.78
20115;BME280;10218;42.874;25.320;2022-10-01T15:21:39;97070.25;;;25.51;69.05
20115;BME280;10218;42.874;25.320;2022-10-01T15:26:45;97055.66;;;25.25;71.72
20115;BME280;10218;42.874;25.320;2022-10-01T15:29:14;97056.12;;;25.02;72.23
20115;BME280;10218;42.874;25.320;2022-10-01T15:31:45;97054.62;;;24.84;80.48
20115;BME280;10218;42.874;25.320;2022-10-01T15:34:18;97059.56;;;24.82;81.64
20115;BME280;10218;42.874;25.320;2022-10-01T15:36:47;97068.41;;;24.99;80.28
20115;BME280;10218;42.874;25.320;2022-10-01T15:39:32;97059.91;;;24.91;80.60
20115;BME280;10218;42.874;25.320;2022-10-01T15:42:08;97055.19;;;24.86;83.60
20115;BME280;10218;42.874;25.320;2022-10-01T15:44:47;97061.56;;;24.55;90.59
20115;BME280;10218;42.874;25.320;2022-10-01T15:50:26;97064.94;;;24.30;95.39
20115;BME280;10218;42.874;25.320;2022-10-01T15:53:09;97060.66;;;24.07;99.20
20115;BME280;10218;42.874;25.320;2022-10-01T15:55:51;97057.41;;;23.83;100.00
20115;BME280;10218;42.874;25.320;2022-10-01T15:58:21;97058.97;;;23.74;100.00
20115;BME280;10218;42.874;25.320;2022-10-01T16:01:00;97048.31;;;23.73;100.00
20115;BME280;10218;42.874;25.320;2022-10-01T16:03:36;97055.03;;;23.60;100.00
20115;BME280;10218;42.874;25.320;2022-10-01T16:06:14;97050.78;;;23.48;100.00
20115;BME280;10218;42.874;25.320;2022-10-01T16:14:32;97034.28;;;23.37;100.00
20115;BME280;10218;42.874;25.320;2022-10-01T16:19:56;97027.34;;;23.47;100.00
20115;BME280;10218;42.874;25.320;2022-10-01T16:25:02;97034.13;;;23.22;100.00
20115;BME280;10218;42.874;25.320;2022-10-01T16:30:21;97027.25;;;22.93;100.00
20115;BME280;10218;42.874;25.320;2022-10-01T16:32:49;97015.75;;;22.69;100.00
20115;BME280;10218;42.874;25.320;2022-10-01T16:35:20;97011.13;;;22.70;100.00
20115;BME280;10218;42.874;25.320;2022-10-01T16:37:49;97006.84;;;22.57;100.00
20115;BME280;10218;42.874;25.320;2022-10-01T16:40:29;97014.25;;;22.61;100.00
20115;BME280;10218;42.874;25.320;2022-10-01T16:42:58;97009.81;;;22.55;100.00
20115;BME280;10218;42.874;25.320;2022-10-01T16:45:30;97006.84;;;22.57;100.00
20115;BME280;10218;42.874;25.320;2022-10-01T16:47:59;96994.94;;;22.41;100.00
20115;BME280;10218;42.874;25.320;2022-10-01T16:50:33;96994.59;;;22.54;100.00
20115;BME280;10218;42.874;25.320;2022-10-01T16:53:04;96981.19;;;22.31;100.00
20115;BME280;10218;42.874;25.320;2022-10-01T16:55:32;96977.53;;;22.42;100.00
20115;BME280;10218;42.874;25.320;2022-10-01T16:58:03;96974.34;;;22.29;100.00
20115;BME280;10218;42.874;25.320;2022-10-01T17:00:32;96970.91;;;22.16;100.00
20115;BME280;10218;42.874;25.320;2022-10-01T17:03:00;96975.03;;;22.41;100.00
20115;BME280;10218;42.874;25.320;2022-10-01T17:05:29;96971.12;;;22.15;100.00
20115;BME280;10218;42.874;25.320;2022-10-01T17:07:57;96958.50;;;22.04;100.00
20115;BME280;10218;42.874;25.320;2022-10-01T17:10:31;96950.31;;;21.87;100.00
20115;BME280;10218;42.874;25.320;2022-10-01T17:13:02;96943.13;;;21.81;100.00
20115;BME280;10218;42.874;25.320;2022-10-01T17:15:29;96944.94;;;21.92;100.00
20115;BME280;10218;42.874;25.320;2022-10-01T17:17:57;96932.25;;;21.81;100.00
20115;BME280;10218;42.874;25.320;2022-10-01T17:20:27;96922.13;;;21.93;100.00
20115;BME280;10218;42.874;25.320;2022-10-01T17:22:56;96919.41;;;21.76;100.00
20115;BME280;10218;42.874;25.320;2022-10-01T17:25:25;96906.41;;;21.62;100.00
20115;BME280;10218;42.874;25.320;2022-10-01T17:27:57;96904.75;;;21.61;100.00
20115;BME280;10218;42.874;25.320;2022-10-01T17:30:25;96895.53;;;21.62;100.00
20115;BME280;10218;42.874;25.320;2022-10-01T17:32:56;96902.50;;;21.74;100.00
20115;BME280;10218;42.874;25.320;2022-10-01T17:35:27;96895.16;;;21.92;100.00
20115;BME280;10218;42.874;25.320;2022-10-01T17:37:55;96894.81;;;22.05;100.00
20115;BME280;10218;42.874;25.320;2022-10-01T17:40:22;96884.37;;;21.97;100.00
20115;BME280;10218;42.874;25.320;2022-10-01T17:42:49;96890.66;;;21.81;100.00
20115;BME280;10218;42.874;25.320;2022-10-01T17:45:16;96878.38;;;21.78;100.00
20115;BME280;10218;42.874;25.320;2022-10-01T17:47:47;96879.22;;;21.62;100.00
20115;BME280;10218;42.874;25.320;2022-10-01T17:50:16;96869.25;;;21.51;100.00
20115;BME280;10218;42.874;25.320;2022-10-01T17:52:46;96872.81;;;21.34;100.00
20115;BME280;10218;42.874;25.320;2022-10-01T17:55:13;96858.38;;;21.34;100.00
20115;BME280;10218;42.874;25.320;2022-10-01T17:57:41;96852.22;;;21.39;100.00
20115;BME280;10218;42.874;25.320;2022-10-01T18:00:08;96839.56;;;21.27;100.00
20115;BME280;10218;42.874;25.320;2022-10-01T18:02:37;96850.25;;;21.17;100.00
20115;BME280;10218;42.874;25.320;2022-10-01T18:05:10;96837.94;;;20.98;100.00
20115;BME280;10218;42.874;25.320;2022-10-01T18:07:38;96848.13;;;20.91;100.00
20115;BME280;10218;42.874;25.320;2022-10-01T18:10:09;96833.31;;;20.99;100.00
20115;BME280;10218;42.874;25.320;2022-10-01T18:12:36;96827.81;;;20.93;100.00
20115;BME280;10218;42.874;25.320;2022-10-01T18:15:04;96820.25;;;20.96;100.00
20115;BME280;10218;42.874;25.320;2022-10-01T18:17:32;96821.56;;;21.10;100.00
20115;BME280;10218;42.874;25.320;2022-10-01T18:20:01;96812.25;;;20.89;100.00
20115;BME280;10218;42.874;25.320;2022-10-01T18:22:28;96834.88;;;20.95;100.00
20115;BME280;10218;42.874;25.320;2022-10-01T18:24:55;96830.59;;;20.99;100.00
20115;BME280;10218;42.874;25.320;2022-10-01T18:27:22;96829.47;;;20.95;100.00
20115;BME280;10218;42.874;25.320;2022-10-01T18:29:49;96817.44;;;20.90;100.00
20115;BME280;10218;42.874;25.320;2022-10-01T18:32:22;96806.81;;;20.72;100.00
20115;BME280;10218;42.874;25.320;2022-10-01T18:34:57;96807.13;;;20.31;100.00
20115;BME280;10218;42.874;25.320;2022-10-01T18:40:04;96800.94;;;20.64;100.00
20115;BME280;10218;42.874;25.320;2022-10-01T18:55:00;96769.00;;;20.82;100.00
20115;BME280;10218;42.874;25.320;2022-10-01T19:05:37;96732.34;;;22.49;93.85
20115;BME280;10218;42.874;25.320;2022-10-01T19:22:16;96696.31;;;24.15;61.53
